createdAt,value
2023-04-06T00:01:23.971Z,100711.81
2023-04-06T00:06:27.673Z,100701.78
2023-04-06T00:11:31.910Z,100702.41
2023-04-06T00:16:34.822Z,100693.00
2023-04-06T00:21:37.732Z,100681.16
2023-04-06T00:26:41.931Z,100670.91
2023-04-06T00:31:44.837Z,100668.84
2023-04-06T00:36:47.638Z,100655.19
2023-04-06T00:41:54.553Z,100664.16
2023-04-06T00:46:57.443Z,100664.09
2023-04-06T00:52:00.452Z,100659.16
2023-04-06T00:57:04.941Z,100653.38
2023-04-06T01:02:08.724Z,100654.72
2023-04-06T02:35:46.784Z,100586.66
2023-04-06T02:40:50.054Z,100587.94
2023-04-06T02:45:58.864Z,100595.09
2023-04-06T02:51:03.336Z,100584.63
2023-04-06T02:56:07.338Z,100586.34
2023-04-06T03:01:19.706Z,100581.41
2023-04-06T03:06:27.375Z,100588.59
2023-04-06T03:11:34.303Z,100587.59
2023-04-06T03:16:37.384Z,100585.16
2023-04-06T03:21:42.704Z,100583.13
2023-04-06T03:26:46.436Z,100583.75
2023-04-06T03:31:49.526Z,100583.88
2023-04-06T03:37:11.934Z,100578.84
2023-04-06T03:42:22.193Z,100583.28
2023-04-06T03:47:36.917Z,100578.41
2023-04-06T03:52:43.831Z,100583.69
2023-04-06T03:57:46.712Z,100584.69
2023-04-06T04:02:49.637Z,100587.63
2023-04-06T04:07:54.050Z,100588.50
2023-04-06T04:13:00.777Z,100581.66
2023-04-06T04:18:03.816Z,100583.75
2023-04-06T04:23:08.076Z,100589.88
2023-04-06T04:28:12.047Z,100590.03
2023-04-06T04:33:16.968Z,100582.09
2023-04-06T04:38:22.347Z,100583.22
2023-04-06T04:43:30.714Z,100586.03
2023-04-06T04:48:36.742Z,100589.06
2023-04-06T04:53:43.839Z,100586.16
2023-04-06T04:58:56.188Z,100588.09
2023-04-06T05:04:01.199Z,100586.72
2023-04-06T05:09:05.957Z,100592.31
2023-04-06T05:14:09.783Z,100593.13
2023-04-06T05:19:13.043Z,100602.56
2023-04-06T05:24:21.745Z,100592.94
2023-04-06T05:29:26.173Z,100593.50
2023-04-06T05:34:29.538Z,100593.13
2023-04-06T05:39:35.007Z,100589.66
2023-04-06T05:44:39.445Z,100586.38
2023-04-06T05:49:47.033Z,100589.53
2023-04-06T05:54:59.280Z,100589.00
2023-04-06T06:00:04.568Z,100593.50
2023-04-06T06:05:21.689Z,100593.47
2023-04-06T06:10:27.602Z,100584.50
2023-04-06T06:15:31.752Z,100580.69
2023-04-06T06:20:34.866Z,100573.50
2023-04-06T06:25:42.228Z,100572.50
2023-04-06T06:30:45.829Z,100577.03
2023-04-06T06:35:54.338Z,100581.59
2023-04-06T06:40:58.849Z,100589.41
2023-04-06T06:46:05.815Z,100592.38
2023-04-06T06:51:10.558Z,100580.63
2023-04-06T06:56:14.770Z,100580.97
2023-04-06T07:01:18.206Z,100581.03
2023-04-06T07:06:22.079Z,100580.69
2023-04-06T07:11:26.322Z,100569.75
2023-04-06T07:16:29.224Z,100574.03
2023-04-06T07:21:32.144Z,100578.50
2023-04-06T07:26:36.401Z,100567.44
2023-04-06T07:31:41.294Z,100578.38
2023-04-06T07:36:44.674Z,100571.63
2023-04-06T07:41:49.064Z,100569.69
2023-04-06T07:46:52.727Z,100574.75
2023-04-06T07:51:58.442Z,100558.25
2023-04-06T07:57:02.713Z,100551.78
2023-04-06T08:02:06.341Z,100543.75
2023-04-06T08:07:09.289Z,100546.44
2023-04-06T08:12:13.508Z,100544.00
2023-04-06T08:17:16.937Z,100539.44
2023-04-06T08:22:19.766Z,100546.50
2023-04-06T08:27:23.971Z,100541.88
2023-04-06T08:32:27.316Z,100534.78
2023-04-06T08:37:30.833Z,100531.41
2023-04-06T08:42:41.141Z,100533.84
2023-04-06T08:47:44.683Z,100527.09
2023-04-06T08:52:49.644Z,100512.00
2023-04-06T08:57:55.932Z,100512.16
2023-04-06T09:02:59.901Z,100507.94
2023-04-06T09:08:03.188Z,100509.66
2023-04-06T09:13:07.980Z,100501.25
2023-04-06T09:18:10.818Z,100488.66
2023-04-06T09:23:20.018Z,100489.66
2023-04-06T09:28:24.333Z,100502.19
2023-04-06T09:33:27.177Z,100492.75
2023-04-06T09:38:29.993Z,100476.59
2023-04-06T09:43:34.146Z,100481.50
2023-04-06T09:48:37.953Z,100477.41
2023-04-06T09:53:43.141Z,100474.69
2023-04-06T09:58:51.166Z,100478.84
2023-04-06T10:03:58.902Z,100462.00
2023-04-06T10:09:05.338Z,100449.91
2023-04-06T10:14:10.229Z,100440.63
2023-04-06T10:19:18.820Z,100449.09
2023-04-06T10:24:21.644Z,100464.34
2023-04-06T10:29:25.804Z,100453.53
2023-04-06T10:40:20.894Z,100463.50
2023-04-06T10:45:27.400Z,100454.41
2023-04-06T10:50:31.788Z,100442.75
2023-04-06T10:55:36.761Z,100439.03
2023-04-06T11:00:50.685Z,100434.19
2023-04-06T11:05:54.066Z,100421.78
2023-04-06T11:11:07.254Z,100426.53
2023-04-06T11:16:16.297Z,100423.25
2023-04-06T11:21:19.313Z,100411.88
2023-04-06T11:26:22.162Z,100411.53
2023-04-06T11:31:28.736Z,100399.66
2023-04-06T11:36:31.720Z,100396.06
2023-04-06T11:41:34.830Z,100391.91
2023-04-06T11:46:39.049Z,100383.53
2023-04-06T11:51:42.016Z,100391.84
2023-04-06T11:56:48.505Z,100384.19
2023-04-06T12:01:53.071Z,100371.94
2023-04-06T12:06:56.250Z,100362.34
2023-04-06T12:11:59.413Z,100376.78
2023-04-06T12:17:03.954Z,100373.81
2023-04-06T12:22:06.792Z,100384.34
2023-04-06T12:27:11.956Z,100376.16
2023-04-06T12:32:16.255Z,100361.28
2023-04-06T12:37:19.076Z,100367.44
2023-04-06T12:42:21.867Z,100371.63
2023-04-06T12:47:27.214Z,100351.00
2023-04-06T12:52:32.419Z,100358.25
2023-04-06T12:57:35.661Z,100347.16
2023-04-06T13:02:39.859Z,100352.78
2023-04-06T13:07:42.737Z,100346.34
2023-04-06T13:12:45.460Z,100338.75
2023-04-06T13:17:49.649Z,100342.53
2023-04-06T13:22:52.537Z,100362.22
2023-04-06T13:27:55.446Z,100329.59
2023-04-06T13:32:59.754Z,100348.00
2023-04-06T13:38:02.651Z,100345.53
2023-04-06T13:43:05.458Z,100339.06
2023-04-06T13:48:09.695Z,100328.56
2023-04-06T13:53:12.376Z,100339.38
2023-04-06T13:58:15.507Z,100326.16
2023-04-06T14:03:19.767Z,100321.84
2023-04-06T14:08:22.595Z,100325.38
2023-04-06T14:13:25.253Z,100319.91
2023-04-06T14:18:31.911Z,100322.91
2023-04-06T14:23:36.207Z,100322.72
2023-04-06T14:28:39.168Z,100333.66
2023-04-06T14:33:44.207Z,100320.53
2023-04-06T14:38:48.570Z,100318.19
2023-04-06T14:43:53.586Z,100317.91
2023-04-06T14:48:58.636Z,100312.63
2023-04-06T14:54:03.858Z,100308.53
2023-04-06T14:59:06.912Z,100311.53
2023-04-06T15:04:11.189Z,100316.28
2023-04-06T15:09:14.201Z,100306.97
2023-04-06T15:14:16.993Z,100296.97
2023-04-06T15:19:21.164Z,100297.09
2023-04-06T15:24:23.981Z,100288.03
2023-04-06T15:29:27.783Z,100291.59
2023-04-06T15:34:33.587Z,100283.72
2023-04-06T15:39:37.740Z,100284.63
2023-04-06T15:44:40.560Z,100279.69
2023-04-06T15:49:44.711Z,100280.19
2023-04-06T15:54:47.696Z,100281.31
2023-04-06T15:59:50.732Z,100280.06
2023-04-06T16:04:57.660Z,100282.44
2023-04-06T16:10:00.620Z,100281.25
2023-04-06T16:15:03.463Z,100292.16
2023-04-06T16:20:09.433Z,100279.72
2023-04-06T16:25:12.689Z,100281.31
2023-04-06T16:30:15.875Z,100288.56
2023-04-06T16:35:20.572Z,100281.72
2023-04-06T16:40:23.388Z,100285.38
2023-04-06T16:45:26.616Z,100284.81
2023-04-06T16:50:30.919Z,100286.44
2023-04-06T16:55:33.816Z,100279.75
2023-04-06T17:00:37.896Z,100271.41
2023-04-06T17:05:42.065Z,100268.16
2023-04-06T17:10:59.132Z,100275.41
2023-04-06T17:16:07.293Z,100276.00
2023-04-06T17:21:14.398Z,100271.75
2023-04-06T17:26:17.445Z,100278.00
2023-04-06T17:31:20.370Z,100275.88
2023-04-06T17:36:24.741Z,100274.75
2023-04-06T17:41:28.625Z,100279.16
2023-04-06T17:46:31.530Z,100289.09
2023-04-06T17:51:35.832Z,100291.94
2023-04-06T17:56:38.656Z,100294.59
2023-04-06T18:01:41.685Z,100307.44
2023-04-06T18:06:46.145Z,100316.78
2023-04-06T18:11:48.919Z,100317.19
2023-04-06T18:16:51.687Z,100324.13
2023-04-06T18:21:55.934Z,100325.72
2023-04-06T18:26:58.812Z,100333.56
2023-04-06T18:32:01.600Z,100331.59
2023-04-06T18:37:05.823Z,100336.41
2023-04-06T18:42:08.688Z,100349.19
2023-04-06T18:47:11.460Z,100339.66
2023-04-06T18:52:15.700Z,100341.13
2023-04-06T18:57:18.524Z,100346.88
2023-04-06T19:02:21.395Z,100343.75
2023-04-06T19:07:26.991Z,100346.16
2023-04-06T19:12:29.806Z,100356.47
2023-04-06T19:17:32.685Z,100359.38
2023-04-06T19:22:37.713Z,100345.44
2023-04-06T19:27:40.495Z,100364.53
2023-04-06T19:32:43.610Z,100361.94
2023-04-06T19:37:47.847Z,100360.13
2023-04-06T19:42:50.703Z,100367.22
2023-04-06T19:47:53.506Z,100369.22
2023-04-06T19:52:59.597Z,100373.03
2023-04-06T19:58:02.673Z,100376.38
2023-04-06T20:03:06.071Z,100369.75
2023-04-06T20:08:10.395Z,100373.59
2023-04-06T20:13:13.230Z,100368.38
2023-04-06T20:18:16.193Z,100368.06
2023-04-06T20:23:20.362Z,100367.09
2023-04-06T20:28:24.326Z,100367.72
2023-04-06T20:33:27.191Z,100380.84
2023-04-06T20:38:33.544Z,100380.16
2023-04-06T20:43:36.902Z,100379.84
2023-04-06T20:48:39.719Z,100370.81
2023-04-06T20:53:43.900Z,100369.63
2023-04-06T20:58:46.712Z,100375.97
2023-04-06T21:03:49.556Z,100384.88
2023-04-06T21:08:53.764Z,100381.19
2023-04-06T21:13:56.591Z,100363.13
2023-04-06T21:18:59.434Z,100371.72
2023-04-06T21:24:06.810Z,100356.38
2023-04-06T21:29:09.865Z,100360.41
2023-04-06T21:34:12.978Z,100357.59
2023-04-06T21:39:17.359Z,100352.69
2023-04-06T21:44:20.513Z,100352.69
2023-04-06T21:49:23.623Z,100360.47
2023-04-06T21:54:33.051Z,100360.06
2023-04-06T21:59:35.869Z,100355.88
2023-04-06T22:04:38.807Z,100353.28
2023-04-06T22:09:50.327Z,100353.69
2023-04-06T22:14:54.294Z,100351.09
2023-04-06T22:19:57.135Z,100349.53
2023-04-06T22:25:01.437Z,100341.59
2023-04-06T22:30:04.698Z,100342.78
2023-04-06T22:35:08.773Z,100341.44
2023-04-06T22:40:13.710Z,100344.59
2023-04-06T22:45:16.485Z,100351.28
2023-04-06T22:50:19.555Z,100349.22
2023-04-06T22:55:23.958Z,100350.38
2023-04-06T23:00:26.894Z,100344.53
2023-04-06T23:05:29.836Z,100344.31
2023-04-06T23:10:34.011Z,100343.38
2023-04-06T23:15:37.001Z,100333.31
2023-04-06T23:20:40.510Z,100331.31
2023-04-06T23:25:44.642Z,100328.81
2023-04-06T23:30:47.414Z,100327.84
2023-04-06T23:35:50.507Z,100327.44
2023-04-06T23:40:54.640Z,100325.00
2023-04-06T23:45:57.552Z,100325.44
2023-04-06T23:51:00.384Z,100324.25
2023-04-06T23:56:04.765Z,100316.69
